SFJ40 RJFF-RJTT
Flight info
| Callsign | SFJ40 |
|---|---|
| Flight time | N/A |
| Altitude | 35000 |
| Route | IPRIR Y231 OMKAT Y235 FLUTE Y23 ARTIC Y71 XAC |
| Aircraft | B78X/H-SDE1E2E3FGHIJ2J3J4J5M1RWXY/LB1D1 |
Departure
| Time | N/A |
|---|---|
| Airport | Fukuoka Airport (RJFF) |
Arrival
| Time | 2026-05-07 02:44 |
|---|---|
| Airport | Tokyo Haneda International Airport (RJTT) |
| Time | Latitude | Longitude | Altitude | Speed | Heading |
|---|---|---|---|---|---|
| 2026-05-07 02:04 | 33.99413 | 133.82537 | 35025 ft | 485 kts | 70° |
| 2026-05-07 02:05 | 34.00501 | 133.86380 | 35023 ft | 485 kts | 70° |
| 2026-05-07 02:05 | 34.02674 | 133.94072 | 35025 ft | 484 kts | 70° |
| 2026-05-07 02:06 | 34.04425 | 134.01854 | 35023 ft | 484 kts | 77° |
| 2026-05-07 02:06 | 34.05878 | 134.09786 | 35024 ft | 483 kts | 77° |
| 2026-05-07 02:07 | 34.07333 | 134.17693 | 35023 ft | 483 kts | 77° |
| 2026-05-07 02:07 | 34.09502 | 134.29568 | 35016 ft | 482 kts | 77° |
| 2026-05-07 02:08 | 34.10932 | 134.37435 | 35020 ft | 482 kts | 77° |
| 2026-05-07 02:08 | 34.12360 | 134.45329 | 35018 ft | 482 kts | 77° |
| 2026-05-07 02:09 | 34.13785 | 134.53227 | 35022 ft | 481 kts | 77° |
| 2026-05-07 02:09 | 34.15205 | 134.61136 | 35021 ft | 481 kts | 77° |
| 2026-05-07 02:10 | 34.16617 | 134.69029 | 35024 ft | 481 kts | 77° |
| 2026-05-07 02:10 | 34.18025 | 134.76933 | 35018 ft | 481 kts | 77° |
| 2026-05-07 02:11 | 34.19428 | 134.84838 | 35021 ft | 481 kts | 77° |
| 2026-05-07 02:11 | 34.20826 | 134.92742 | 35022 ft | 481 kts | 77° |
| 2026-05-07 02:12 | 34.22216 | 135.00652 | 35018 ft | 481 kts | 78° |
| 2026-05-07 02:12 | 34.23554 | 135.08532 | 35007 ft | 482 kts | 78° |
| 2026-05-07 02:13 | 34.24890 | 135.16463 | 35012 ft | 481 kts | 78° |
| 2026-05-07 02:13 | 34.26229 | 135.24411 | 35012 ft | 481 kts | 78° |
| 2026-05-07 02:14 | 34.27561 | 135.32342 | 35016 ft | 481 kts | 78° |
| 2026-05-07 02:14 | 34.28877 | 135.40212 | 35003 ft | 478 kts | 78° |
| 2026-05-07 02:15 | 34.30191 | 135.48105 | 35006 ft | 478 kts | 78° |
| 2026-05-07 02:15 | 34.31500 | 135.55994 | 35004 ft | 478 kts | 78° |
| 2026-05-07 02:16 | 34.32803 | 135.63886 | 35006 ft | 477 kts | 78° |
| 2026-05-07 02:16 | 34.34091 | 135.71713 | 35007 ft | 477 kts | 78° |
| 2026-05-07 02:17 | 34.35379 | 135.79583 | 35006 ft | 477 kts | 78° |
| 2026-05-07 02:17 | 34.36666 | 135.87468 | 35008 ft | 476 kts | 79° |
| 2026-05-07 02:18 | 34.37937 | 135.95292 | 35008 ft | 476 kts | 79° |
| 2026-05-07 02:18 | 34.39208 | 136.03153 | 35015 ft | 475 kts | 79° |
| 2026-05-07 02:19 | 34.40473 | 136.11005 | 35015 ft | 475 kts | 79° |
| 2026-05-07 02:19 | 34.41724 | 136.18810 | 35007 ft | 474 kts | 79° |
| 2026-05-07 02:20 | 34.42976 | 136.26659 | 35006 ft | 474 kts | 79° |
| 2026-05-07 02:20 | 34.44223 | 136.34507 | 35003 ft | 473 kts | 79° |
| 2026-05-07 02:21 | 34.45462 | 136.42340 | 34998 ft | 473 kts | 79° |
| 2026-05-07 02:21 | 34.46694 | 136.50161 | 35004 ft | 472 kts | 79° |
| 2026-05-07 02:22 | 34.47914 | 136.57944 | 35000 ft | 472 kts | 79° |
| 2026-05-07 02:22 | 34.49137 | 136.65773 | 34998 ft | 471 kts | 79° |
| 2026-05-07 02:23 | 34.50349 | 136.73572 | 34993 ft | 471 kts | 79° |
| 2026-05-07 02:23 | 34.51553 | 136.81349 | 34986 ft | 471 kts | 79° |
| 2026-05-07 02:24 | 34.52758 | 136.89169 | 34985 ft | 470 kts | 79° |
| 2026-05-07 02:24 | 34.53788 | 136.97003 | 34984 ft | 470 kts | 86° |
| 2026-05-07 02:25 | 34.53924 | 137.04881 | 34977 ft | 469 kts | 90° |
| 2026-05-07 02:25 | 34.53988 | 137.12800 | 34976 ft | 469 kts | 90° |
| 2026-05-07 02:26 | 34.54050 | 137.20729 | 34971 ft | 470 kts | 90° |
| 2026-05-07 02:26 | 34.54102 | 137.28617 | 34970 ft | 471 kts | 90° |
| 2026-05-07 02:27 | 34.54148 | 137.36573 | 34966 ft | 472 kts | 91° |
| 2026-05-07 02:27 | 34.54190 | 137.44561 | 34963 ft | 473 kts | 91° |
| 2026-05-07 02:28 | 34.54227 | 137.52565 | 34974 ft | 475 kts | 91° |
| 2026-05-07 02:28 | 34.54258 | 137.60546 | 34971 ft | 477 kts | 91° |
| 2026-05-07 02:29 | 34.54284 | 137.68605 | 34974 ft | 478 kts | 91° |
| 2026-05-07 02:29 | 34.54334 | 137.94117 | 34984 ft | 485 kts | 92° |
| 2026-05-07 02:30 | 34.54285 | 138.26994 | 35008 ft | 493 kts | 93° |
| 2026-05-07 02:30 | 34.56287 | 138.43432 | 33983 ft | 502 kts | 66° |
| 2026-05-07 02:30 | 34.62630 | 138.58725 | 30443 ft | 512 kts | 63° |
| 2026-05-07 02:31 | 34.68883 | 138.73907 | 28027 ft | 488 kts | 63° |
| 2026-05-07 02:31 | 34.71523 | 138.89498 | 25688 ft | 466 kts | 93° |
| 2026-05-07 02:31 | 34.71465 | 139.05134 | 23353 ft | 456 kts | 93° |
| 2026-05-07 02:31 | 34.71383 | 139.20053 | 21124 ft | 440 kts | 94° |
| 2026-05-07 02:32 | 34.71283 | 139.34706 | 18879 ft | 428 kts | 94° |
| 2026-05-07 02:32 | 34.74420 | 139.48310 | 16678 ft | 421 kts | 61° |
| 2026-05-07 02:32 | 34.80015 | 139.60558 | 14483 ft | 410 kts | 62° |
| 2026-05-07 02:32 | 34.86822 | 139.70895 | 13002 ft | 380 kts | 18° |
| 2026-05-07 02:33 | 34.96581 | 139.74729 | 12989 ft | 385 kts | 19° |
| 2026-05-07 02:33 | 35.01037 | 139.78377 | 12995 ft | 390 kts | 44° |
| 2026-05-07 02:33 | 35.04939 | 139.82998 | 12860 ft | 392 kts | 44° |
| 2026-05-07 02:33 | 35.08657 | 139.87626 | 12371 ft | 384 kts | 44° |
| 2026-05-07 02:34 | 35.12420 | 139.92209 | 11880 ft | 381 kts | 43° |
| 2026-05-07 02:34 | 35.16192 | 139.96706 | 11389 ft | 375 kts | 43° |
| 2026-05-07 02:34 | 35.21469 | 140.02977 | 10713 ft | 369 kts | 43° |
| 2026-05-07 02:34 | 35.28475 | 140.11328 | 10162 ft | 328 kts | 43° |
| 2026-05-07 02:35 | 35.34708 | 140.18775 | 8936 ft | 309 kts | 44° |
| 2026-05-07 02:35 | 35.42093 | 140.21761 | 7763 ft | 294 kts | 349° |
| 2026-05-07 02:35 | 35.48367 | 140.20910 | 7213 ft | 292 kts | 352° |
| 2026-05-07 02:35 | 35.52394 | 140.20491 | 6974 ft | 285 kts | 351° |
| 2026-05-07 02:36 | 35.54314 | 140.20051 | 6903 ft | 269 kts | 340° |
| 2026-05-07 02:36 | 35.56131 | 140.19408 | 6806 ft | 258 kts | 340° |
| 2026-05-07 02:36 | 35.59067 | 140.17496 | 6482 ft | 230 kts | 300° |
| 2026-05-07 02:36 | 35.60299 | 140.14713 | 5825 ft | 223 kts | 285° |
| 2026-05-07 02:37 | 35.60573 | 140.12859 | 5460 ft | 218 kts | 266° |
| 2026-05-07 02:37 | 35.60531 | 140.11004 | 5133 ft | 216 kts | 263° |
| 2026-05-07 02:37 | 35.60432 | 140.09193 | 4986 ft | 217 kts | 263° |
| 2026-05-07 02:37 | 35.60383 | 140.07328 | 4975 ft | 220 kts | 266° |
| 2026-05-07 02:38 | 35.60384 | 140.05456 | 4792 ft | 217 kts | 266° |
| 2026-05-07 02:38 | 35.60382 | 140.03599 | 4481 ft | 218 kts | 266° |
| 2026-05-07 02:38 | 35.60382 | 140.01733 | 4172 ft | 218 kts | 267° |
| 2026-05-07 02:38 | 35.60383 | 139.99916 | 3858 ft | 206 kts | 267° |
| 2026-05-07 02:39 | 35.60383 | 139.98208 | 3565 ft | 193 kts | 266° |
| 2026-05-07 02:39 | 35.60383 | 139.96603 | 3289 ft | 183 kts | 267° |
| 2026-05-07 02:39 | 35.60384 | 139.95113 | 3111 ft | 166 kts | 266° |
| 2026-05-07 02:39 | 35.60383 | 139.93730 | 2867 ft | 157 kts | 267° |
| 2026-05-07 02:40 | 35.60383 | 139.92439 | 2641 ft | 152 kts | 266° |
| 2026-05-07 02:40 | 35.60382 | 139.91132 | 2445 ft | 154 kts | 266° |
| 2026-05-07 02:40 | 35.60383 | 139.89819 | 2228 ft | 153 kts | 266° |
| 2026-05-07 02:40 | 35.60383 | 139.88520 | 2013 ft | 151 kts | 266° |
| 2026-05-07 02:41 | 35.60382 | 139.87214 | 1804 ft | 153 kts | 267° |
| 2026-05-07 02:41 | 35.60382 | 139.85920 | 1577 ft | 152 kts | 266° |
| 2026-05-07 02:41 | 35.60380 | 139.84620 | 1360 ft | 151 kts | 267° |
| 2026-05-07 02:41 | 35.60367 | 139.83328 | 1181 ft | 148 kts | 266° |
| 2026-05-07 02:42 | 35.60349 | 139.82137 | 1087 ft | 138 kts | 264° |
| 2026-05-07 02:42 | 35.60164 | 139.80952 | 1014 ft | 142 kts | 240° |
| 2026-05-07 02:42 | 35.59552 | 139.80056 | 827 ft | 134 kts | 216° |
| 2026-05-07 02:42 | 35.58774 | 139.79415 | 635 ft | 135 kts | 210° |
| 2026-05-07 02:43 | 35.58002 | 139.78781 | 407 ft | 132 kts | 212° |
| 2026-05-07 02:43 | 35.57248 | 139.78143 | 230 ft | 131 kts | 211° |
| 2026-05-07 02:43 | 35.56753 | 139.77720 | 84 ft | 131 kts | 212° |
| 2026-05-07 02:43 | 35.56043 | 139.77109 | 31 ft | 105 kts | 216° |
| 2026-05-07 02:44 | 35.55609 | 139.76734 | 29 ft | 44 kts | 215° |
| 2026-05-07 02:44 | 35.55366 | 139.76625 | 24 ft | 32 kts | 190° |
| 2026-05-07 02:44 | 35.55287 | 139.76651 | 23 ft | 11 kts | 124° |
| 2026-05-07 02:44 | 35.55338 | 139.76772 | 25 ft | 19 kts | 37° |
| 2026-05-07 02:45 | 35.55494 | 139.76906 | 26 ft | 26 kts | 36° |
| 2026-05-07 02:45 | 35.55498 | 139.77008 | 23 ft | 20 kts | 135° |
| 2026-05-07 02:45 | 35.55386 | 139.77084 | 22 ft | 22 kts | 146° |
| 2026-05-07 02:45 | 35.55192 | 139.77220 | 24 ft | 34 kts | 150° |
| 2026-05-07 02:46 | 35.54986 | 139.77370 | 22 ft | 34 kts | 150° |
| 2026-05-07 02:46 | 35.54778 | 139.77514 | 20 ft | 34 kts | 147° |
| 2026-05-07 02:46 | 35.54578 | 139.77658 | 21 ft | 30 kts | 150° |
| 2026-05-07 02:46 | 35.54399 | 139.77789 | 19 ft | 30 kts | 149° |
| 2026-05-07 02:47 | 35.54219 | 139.77913 | 20 ft | 26 kts | 150° |
| 2026-05-07 02:47 | 35.54088 | 139.78008 | 20 ft | 18 kts | 142° |
| 2026-05-07 02:47 | 35.54096 | 139.78143 | 20 ft | 18 kts | 58° |
| 2026-05-07 02:47 | 35.54161 | 139.78277 | 23 ft | 20 kts | 60° |
| 2026-05-07 02:48 | 35.54232 | 139.78433 | 22 ft | 22 kts | 57° |
| 2026-05-07 02:48 | 35.54304 | 139.78583 | 27 ft | 20 kts | 63° |
| 2026-05-07 02:48 | 35.54375 | 139.78730 | 32 ft | 20 kts | 59° |
| 2026-05-07 02:48 | 35.54409 | 139.78786 | 33 ft | 5 kts | 33° |
| 2026-05-07 02:49 | 35.54472 | 139.78759 | 30 ft | 15 kts | 328° |
| 2026-05-07 02:49 | 35.54538 | 139.78711 | 29 ft | 1 kts | 328° |
| 2026-05-07 02:49 | 35.54540 | 139.78710 | 29 ft | 0 kts | 329° |